createdAt,value
2022-09-18T00:01:45.523Z,0.70
2022-09-18T00:04:20.834Z,0.90
2022-09-18T00:06:57.282Z,0.60
2022-09-18T00:09:32.106Z,0.60
2022-09-18T00:12:07.833Z,0.70
2022-09-18T00:14:42.368Z,0.77
2022-09-18T00:17:20.186Z,0.60
2022-09-18T00:19:58.061Z,0.80
2022-09-18T00:22:33.382Z,0.98
2022-09-18T00:25:07.898Z,0.80
2022-09-18T00:27:43.258Z,0.80
2022-09-18T00:30:22.512Z,0.68
2022-09-18T00:33:02.030Z,0.80
2022-09-18T00:35:40.299Z,0.70
2022-09-18T00:38:16.257Z,0.70
2022-09-18T00:40:51.551Z,0.70
2022-09-18T00:43:28.287Z,0.70
2022-09-18T00:46:06.513Z,0.60
2022-09-18T00:48:54.129Z,0.50
2022-09-18T00:51:30.437Z,0.68
2022-09-18T00:54:12.604Z,0.55
2022-09-18T00:56:48.751Z,0.68
2022-09-18T00:59:43.816Z,0.70
2022-09-18T01:02:20.538Z,0.63
2022-09-18T01:04:58.303Z,0.60
2022-09-18T01:07:47.287Z,0.70
2022-09-18T01:10:34.913Z,0.82
2022-09-18T01:13:21.907Z,0.55
2022-09-18T01:16:02.769Z,0.60
2022-09-18T01:18:50.884Z,0.73
2022-09-18T01:21:38.519Z,0.90
2022-09-18T01:24:48.973Z,0.65
2022-09-18T01:27:34.720Z,0.80
2022-09-18T01:30:16.023Z,0.80
2022-09-18T01:32:59.280Z,0.70
2022-09-18T01:35:42.275Z,0.70
2022-09-18T01:38:24.371Z,0.60
2022-09-18T01:41:04.700Z,0.70
2022-09-18T01:43:42.418Z,0.70
2022-09-18T01:46:23.781Z,0.70
2022-09-18T01:49:02.872Z,0.70
2022-09-18T01:51:49.234Z,0.70
2022-09-18T01:54:29.062Z,0.73
2022-09-18T01:57:17.594Z,0.77
2022-09-18T02:00:01.333Z,0.63
2022-09-18T02:02:45.654Z,0.60
2022-09-18T02:05:25.141Z,0.70
2022-09-18T02:08:17.988Z,0.63
2022-09-18T02:10:58.430Z,0.75
2022-09-18T02:13:38.649Z,0.60
2022-09-18T02:16:22.380Z,0.70
2022-09-18T02:19:02.615Z,0.60
2022-09-18T02:21:38.969Z,0.70
2022-09-18T02:24:17.161Z,0.73
2022-09-18T02:26:58.443Z,0.77
2022-09-18T02:29:34.682Z,0.80
2022-09-18T02:32:10.624Z,0.80
2022-09-18T02:34:47.977Z,0.70
2022-09-18T02:37:37.353Z,0.80
2022-09-18T02:40:31.804Z,0.50
2022-09-18T02:43:20.553Z,0.73
2022-09-18T02:46:03.177Z,0.70
2022-09-18T02:48:56.528Z,0.70
2022-09-18T02:51:42.030Z,0.75
2022-09-18T02:54:24.453Z,0.68
2022-09-18T02:57:08.232Z,0.90
2022-09-18T02:59:46.219Z,0.70
2022-09-18T03:02:28.823Z,0.70
2022-09-18T03:05:04.891Z,0.90
2022-09-18T03:07:50.281Z,0.90
2022-09-18T03:10:26.057Z,0.70
2022-09-18T03:13:01.722Z,0.80
2022-09-18T03:15:37.104Z,0.90
2022-09-18T03:18:12.533Z,0.77
2022-09-18T03:20:57.234Z,0.70
2022-09-18T03:23:40.235Z,0.88
2022-09-18T03:26:29.328Z,0.70
2022-09-18T03:29:04.987Z,0.80
2022-09-18T03:31:40.849Z,1.00
2022-09-18T03:34:26.975Z,0.70
2022-09-18T03:37:02.894Z,0.60
2022-09-18T03:39:40.076Z,0.80
2022-09-18T03:42:18.898Z,0.70
2022-09-18T03:44:54.112Z,0.90
2022-09-18T03:47:36.655Z,0.70
2022-09-18T03:50:12.897Z,0.63
2022-09-18T03:52:51.608Z,0.70
2022-09-18T03:56:00.438Z,0.70
2022-09-18T03:58:57.221Z,0.90
2022-09-18T04:01:52.607Z,0.80
2022-09-18T04:04:37.543Z,0.80
2022-09-18T04:07:21.968Z,0.70
2022-09-18T04:10:25.741Z,0.80
2022-09-18T04:13:03.055Z,0.80
2022-09-18T04:15:43.353Z,0.85
2022-09-18T04:18:18.537Z,0.85
2022-09-18T04:20:53.822Z,0.70
2022-09-18T04:23:29.602Z,0.90
2022-09-18T04:26:10.608Z,1.30
2022-09-18T04:28:56.419Z,0.70
2022-09-18T04:31:31.737Z,0.80
2022-09-18T04:34:12.056Z,0.98
2022-09-18T04:36:48.190Z,0.60
2022-09-18T04:39:24.292Z,0.73
2022-09-18T04:41:59.805Z,0.80
2022-09-18T04:44:40.378Z,0.85
2022-09-18T04:47:18.386Z,0.90
2022-09-18T04:49:54.278Z,0.80
2022-09-18T04:52:29.806Z,0.80
2022-09-18T04:55:10.040Z,0.73
2022-09-18T04:57:51.227Z,0.80
2022-09-18T05:00:32.981Z,1.27
2022-09-18T05:03:09.075Z,1.08
2022-09-18T05:05:47.986Z,0.80
2022-09-18T05:08:24.524Z,0.70
2022-09-18T05:11:00.009Z,0.80
2022-09-18T05:13:38.317Z,0.95
2022-09-18T05:16:22.068Z,0.77
2022-09-18T05:19:15.061Z,0.63
2022-09-18T05:21:52.745Z,0.70
2022-09-18T05:24:28.430Z,0.85
2022-09-18T05:27:04.256Z,0.75
2022-09-18T05:29:39.961Z,0.73
2022-09-18T05:32:24.913Z,0.90
2022-09-18T05:35:00.797Z,0.90
2022-09-18T05:37:36.218Z,0.73
2022-09-18T05:40:15.485Z,0.88
2022-09-18T05:42:54.510Z,0.80
2022-09-18T05:45:29.868Z,0.80
2022-09-18T05:48:09.810Z,0.70
2022-09-18T05:50:46.016Z,0.70
2022-09-18T05:53:24.684Z,0.73
2022-09-18T05:56:22.246Z,0.70
2022-09-18T05:58:58.910Z,0.80
2022-09-18T06:01:35.360Z,1.05
2022-09-18T06:04:32.403Z,0.90
2022-09-18T06:07:14.641Z,0.70
2022-09-18T06:09:49.764Z,0.90
2022-09-18T06:12:25.288Z,0.77
2022-09-18T06:15:00.564Z,1.00
2022-09-18T06:17:35.802Z,0.80
2022-09-18T06:20:15.542Z,0.80
2022-09-18T06:22:54.297Z,0.93
2022-09-18T06:25:43.420Z,1.00
2022-09-18T06:28:21.461Z,0.70
2022-09-18T06:30:58.393Z,0.70
2022-09-18T06:33:33.799Z,0.77
2022-09-18T06:36:12.433Z,0.90
2022-09-18T06:39:00.151Z,0.88
2022-09-18T06:41:35.229Z,0.80
2022-09-18T06:44:14.335Z,0.77
2022-09-18T06:46:57.891Z,0.90
2022-09-18T06:49:43.545Z,1.00
2022-09-18T06:52:19.664Z,0.80
2022-09-18T06:54:54.803Z,0.90
2022-09-18T06:57:39.047Z,0.70
2022-09-18T07:00:15.088Z,0.80
2022-09-18T07:02:50.142Z,0.80
2022-09-18T07:05:47.053Z,1.15
2022-09-18T07:08:55.702Z,0.90
2022-09-18T07:11:47.836Z,0.80
2022-09-18T07:14:23.376Z,1.10
2022-09-18T07:17:02.439Z,1.88
2022-09-18T07:20:18.740Z,2.85
2022-09-18T07:22:47.565Z,1.48
2022-09-18T07:25:25.500Z,0.93
2022-09-18T07:28:06.093Z,0.82
2022-09-18T07:30:46.455Z,0.90
2022-09-18T07:33:23.162Z,1.00
2022-09-18T07:36:03.562Z,0.90
2022-09-18T07:38:42.986Z,0.90
2022-09-18T07:41:21.489Z,0.90
2022-09-18T07:43:57.079Z,1.00
2022-09-18T07:46:32.351Z,0.90
2022-09-18T07:49:11.885Z,0.95
2022-09-18T07:51:49.079Z,1.13
2022-09-18T07:54:26.410Z,1.40
2022-09-18T07:57:09.942Z,0.98
2022-09-18T08:00:05.858Z,1.10
2022-09-18T08:02:51.164Z,0.90
2022-09-18T08:05:51.322Z,0.90
2022-09-18T08:08:26.993Z,0.90
2022-09-18T08:11:29.849Z,1.00
2022-09-18T08:14:29.219Z,0.88
2022-09-18T08:17:31.142Z,1.10
2022-09-18T08:20:17.530Z,1.10
2022-09-18T08:23:02.617Z,1.27
2022-09-18T08:25:41.349Z,1.20
2022-09-18T08:28:18.431Z,1.33
2022-09-18T08:31:02.913Z,1.30
2022-09-18T08:33:39.632Z,1.30
2022-09-18T08:36:17.006Z,1.10
2022-09-18T08:39:12.218Z,1.20
2022-09-18T08:42:31.548Z,1.27
2022-09-18T08:45:13.536Z,1.05
2022-09-18T08:47:53.750Z,1.15
2022-09-18T08:50:36.275Z,1.13
2022-09-18T08:53:23.470Z,1.00
2022-09-18T08:56:28.274Z,1.20
2022-09-18T08:59:26.676Z,1.30
2022-09-18T09:02:10.703Z,1.20
2022-09-18T09:04:48.899Z,1.20
2022-09-18T09:07:44.829Z,1.30
2022-09-18T09:10:43.616Z,1.15
2022-09-18T09:13:29.855Z,1.10
2022-09-18T09:16:07.583Z,1.20
2022-09-18T09:18:49.404Z,1.50
2022-09-18T09:21:27.843Z,1.30
2022-09-18T09:24:12.944Z,1.27
2022-09-18T09:27:23.116Z,1.23
2022-09-18T09:37:47.887Z,1.13
2022-09-18T09:40:30.803Z,1.08
2022-09-18T09:43:10.194Z,1.13
2022-09-18T09:45:50.148Z,1.00
2022-09-18T09:48:30.557Z,1.33
2022-09-18T09:51:08.767Z,1.05
2022-09-18T09:53:51.361Z,0.85
2022-09-18T09:56:30.488Z,0.90
2022-09-18T09:59:09.160Z,0.85
2022-09-18T10:02:02.805Z,1.10
2022-09-18T10:04:42.903Z,1.08
2022-09-18T10:07:23.731Z,1.20
2022-09-18T10:10:05.955Z,1.38
2022-09-18T10:12:48.416Z,1.20
2022-09-18T10:15:25.017Z,1.55
2022-09-18T10:18:01.051Z,1.33
2022-09-18T10:20:37.279Z,1.55
2022-09-18T10:23:15.169Z,1.50
2022-09-18T10:25:53.821Z,1.60
2022-09-18T10:28:31.089Z,1.63
2022-09-18T10:31:12.210Z,1.48
2022-09-18T10:33:54.691Z,1.50
2022-09-18T10:36:36.824Z,1.40
2022-09-18T10:39:22.425Z,1.50
2022-09-18T10:42:01.933Z,1.48
2022-09-18T10:44:39.906Z,1.52
2022-09-18T10:47:29.426Z,1.80
2022-09-18T10:50:10.926Z,1.58
2022-09-18T10:52:50.312Z,1.52
2022-09-18T10:55:36.105Z,1.50
2022-09-18T10:58:20.593Z,1.50
2022-09-18T11:01:00.993Z,1.48
2022-09-18T11:03:45.212Z,1.42
2022-09-18T11:06:39.191Z,1.60
2022-09-18T11:09:27.722Z,1.40
2022-09-18T11:12:04.341Z,1.40
2022-09-18T11:14:48.584Z,1.50
2022-09-18T11:17:30.619Z,1.60
2022-09-18T11:20:14.245Z,1.58
2022-09-18T11:23:20.495Z,1.63
2022-09-18T11:26:15.099Z,1.50
2022-09-18T11:29:09.035Z,1.27
2022-09-18T11:31:50.105Z,1.20
2022-09-18T11:34:36.114Z,1.40
2022-09-18T11:37:26.670Z,1.30
2022-09-18T11:40:06.523Z,1.70
2022-09-18T11:42:51.411Z,1.40
2022-09-18T11:45:52.502Z,1.10
2022-09-18T11:48:40.752Z,1.13
2022-09-18T11:51:22.306Z,1.10
2022-09-18T11:54:06.099Z,1.00
2022-09-18T11:56:49.460Z,1.00
2022-09-18T11:59:39.744Z,1.20
2022-09-18T12:02:25.809Z,0.95
2022-09-18T12:05:13.578Z,1.10
2022-09-18T12:07:54.675Z,1.25
2022-09-18T12:10:40.735Z,1.20
2022-09-18T12:13:41.771Z,1.10
2022-09-18T12:16:22.915Z,1.10
2022-09-18T12:19:10.502Z,1.02
2022-09-18T12:22:01.094Z,0.90
2022-09-18T12:24:37.774Z,0.98
2022-09-18T12:27:27.874Z,1.00
2022-09-18T12:30:13.098Z,1.10
2022-09-18T12:33:24.946Z,1.00
2022-09-18T12:36:13.925Z,1.00
2022-09-18T12:39:05.483Z,1.00
2022-09-18T12:41:58.418Z,1.02
2022-09-18T12:45:01.850Z,1.10
2022-09-18T12:47:51.278Z,1.20
2022-09-18T12:50:44.260Z,1.17
2022-09-18T12:53:32.855Z,1.20
2022-09-18T12:56:24.296Z,1.10
2022-09-18T12:59:12.618Z,1.10
2022-09-18T13:01:53.252Z,0.95
2022-09-18T13:04:32.072Z,0.85
2022-09-18T13:07:10.276Z,1.05
2022-09-18T13:09:54.900Z,0.80
2022-09-18T13:12:39.985Z,0.88
2022-09-18T13:15:20.569Z,0.80
2022-09-18T13:17:59.833Z,0.90
2022-09-18T13:20:55.507Z,0.90
2022-09-18T13:23:35.786Z,0.90
2022-09-18T13:26:20.214Z,1.00
2022-09-18T13:28:57.170Z,0.90
2022-09-18T13:31:34.017Z,1.00
2022-09-18T13:34:10.997Z,0.80
2022-09-18T13:36:48.087Z,0.98
2022-09-18T13:39:40.947Z,1.20
2022-09-18T13:42:37.251Z,0.73
2022-09-18T13:45:24.494Z,0.80
2022-09-18T13:48:08.012Z,0.88
2022-09-18T13:50:53.063Z,1.02
2022-09-18T13:53:45.566Z,0.95
2022-09-18T13:56:21.556Z,1.00
2022-09-18T13:59:02.093Z,0.80
2022-09-18T14:02:05.090Z,0.93
2022-09-18T14:05:04.166Z,0.95
2022-09-18T14:08:00.686Z,1.10
2022-09-18T14:10:51.305Z,0.90
2022-09-18T14:14:01.090Z,1.20
2022-09-18T14:16:45.198Z,0.93
2022-09-18T14:19:38.029Z,1.00
2022-09-18T14:22:30.055Z,0.82
2022-09-18T14:25:08.158Z,1.00
2022-09-18T14:27:52.474Z,1.05
2022-09-18T14:30:29.166Z,0.80
2022-09-18T14:33:22.603Z,0.88
2022-09-18T14:36:04.873Z,1.00
2022-09-18T14:38:42.711Z,1.00
2022-09-18T14:41:25.616Z,1.00
2022-09-18T14:44:02.846Z,0.90
2022-09-18T14:46:38.582Z,1.00
2022-09-18T14:49:31.353Z,1.00
2022-09-18T14:52:20.038Z,0.90
2022-09-18T14:54:56.813Z,1.30
2022-09-18T14:57:34.069Z,0.90
2022-09-18T15:00:11.409Z,0.70
2022-09-18T15:02:47.041Z,0.90
2022-09-18T15:05:24.780Z,0.85
2022-09-18T15:08:06.573Z,1.13
2022-09-18T15:10:44.018Z,1.10
2022-09-18T15:13:20.805Z,0.93
2022-09-18T15:16:06.007Z,0.90
2022-09-18T15:18:46.618Z,1.10
2022-09-18T15:21:34.357Z,0.88
2022-09-18T15:24:19.129Z,1.02
2022-09-18T15:26:57.164Z,1.05
2022-09-18T15:29:36.454Z,0.80
2022-09-18T15:32:12.243Z,0.85
2022-09-18T15:34:54.163Z,1.00
2022-09-18T15:37:35.247Z,1.00
2022-09-18T15:40:21.165Z,1.10
2022-09-18T15:43:03.221Z,1.08
2022-09-18T15:45:40.221Z,1.00
2022-09-18T15:48:39.616Z,0.80
2022-09-18T15:51:21.178Z,1.00
2022-09-18T15:54:27.154Z,1.10
2022-09-18T15:57:05.913Z,1.10
2022-09-18T15:59:43.884Z,0.98
2022-09-18T16:02:29.208Z,0.95
2022-09-18T16:05:13.671Z,0.80
2022-09-18T16:07:57.747Z,0.85
2022-09-18T16:10:54.192Z,1.10
2022-09-18T16:13:45.207Z,1.00
2022-09-18T16:16:30.968Z,0.85
2022-09-18T16:19:14.965Z,0.85
2022-09-18T16:21:50.431Z,1.10
2022-09-18T16:24:32.521Z,0.88
2022-09-18T16:27:11.404Z,1.00
2022-09-18T16:29:49.406Z,0.88
2022-09-18T16:32:25.103Z,0.93
2022-09-18T16:35:00.555Z,0.90
2022-09-18T16:37:39.499Z,0.95
2022-09-18T16:40:27.196Z,0.95
2022-09-18T16:43:02.847Z,1.02
2022-09-18T16:45:40.201Z,1.00
2022-09-18T16:48:15.880Z,1.00
2022-09-18T16:50:51.568Z,1.10
2022-09-18T16:53:27.262Z,0.80
2022-09-18T16:56:03.190Z,0.80
2022-09-18T16:58:40.568Z,1.15
2022-09-18T17:01:17.604Z,0.90
2022-09-18T17:03:53.101Z,0.80
2022-09-18T17:06:28.396Z,0.80
2022-09-18T17:09:04.781Z,0.85
2022-09-18T17:11:41.475Z,0.80
2022-09-18T17:14:19.711Z,0.80
2022-09-18T17:16:57.172Z,1.00
2022-09-18T17:19:32.609Z,0.90
2022-09-18T17:22:07.958Z,1.00
2022-09-18T17:25:04.193Z,1.08
2022-09-18T17:27:43.680Z,1.10
2022-09-18T17:30:20.397Z,1.00
2022-09-18T17:32:58.011Z,0.90
2022-09-18T17:35:33.174Z,0.95
2022-09-18T17:38:08.676Z,0.80
2022-09-18T17:40:44.356Z,0.80
2022-09-18T17:43:19.474Z,0.90
2022-09-18T17:46:00.101Z,0.90
2022-09-18T17:48:37.755Z,0.80
2022-09-18T17:51:14.648Z,0.95
2022-09-18T17:53:51.042Z,0.80
2022-09-18T17:56:31.422Z,0.73
2022-09-18T17:59:09.003Z,0.90
2022-09-18T18:01:48.063Z,0.80
2022-09-18T18:04:25.518Z,1.00
2022-09-18T18:07:01.970Z,0.73
2022-09-18T18:09:39.303Z,0.88
2022-09-18T18:12:14.518Z,0.93
2022-09-18T18:14:49.802Z,0.98
2022-09-18T18:17:24.862Z,0.70
2022-09-18T18:20:02.181Z,0.70
2022-09-18T18:22:37.921Z,0.80
2022-09-18T18:25:14.044Z,0.80
2022-09-18T18:28:12.991Z,0.70
2022-09-18T18:30:49.496Z,0.73
2022-09-18T18:33:24.797Z,0.90
2022-09-18T18:36:11.017Z,0.90
2022-09-18T18:38:46.715Z,0.95
2022-09-18T18:41:23.204Z,1.00
2022-09-18T18:43:59.820Z,0.80
2022-09-18T18:46:37.523Z,0.80
2022-09-18T18:49:18.710Z,0.80
2022-09-18T18:51:55.796Z,1.13
2022-09-18T18:54:31.550Z,1.23
2022-09-18T18:57:06.921Z,1.15
2022-09-18T18:59:42.437Z,0.93
2022-09-18T19:02:17.553Z,1.00
2022-09-18T19:04:52.945Z,0.88
2022-09-18T19:07:30.176Z,0.82
2022-09-18T19:10:05.360Z,0.90
2022-09-18T19:12:41.077Z,0.80
2022-09-18T19:15:16.857Z,0.90
2022-09-18T19:17:54.895Z,0.98
2022-09-18T19:20:30.677Z,1.02
2022-09-18T19:23:08.768Z,1.33
2022-09-18T19:25:44.877Z,1.00
2022-09-18T19:28:20.964Z,1.13
2022-09-18T19:30:56.591Z,1.33
2022-09-18T19:33:31.959Z,1.10
2022-09-18T19:36:11.188Z,1.10
2022-09-18T19:38:48.244Z,1.00
2022-09-18T19:41:30.709Z,1.00
2022-09-18T19:44:08.052Z,0.98
2022-09-18T19:46:43.392Z,0.82
2022-09-18T19:49:21.893Z,0.90
2022-09-18T19:51:57.446Z,0.90
2022-09-18T19:54:34.866Z,0.90
2022-09-18T19:57:10.099Z,0.93
2022-09-18T19:59:48.653Z,0.90
2022-09-18T20:02:23.903Z,0.90
2022-09-18T20:04:59.048Z,1.27
2022-09-18T20:07:34.394Z,1.00
2022-09-18T20:10:12.732Z,0.90
2022-09-18T20:12:49.451Z,1.10
2022-09-18T20:15:25.068Z,1.00
2022-09-18T20:18:00.397Z,1.13
2022-09-18T20:20:36.626Z,1.10
2022-09-18T20:23:11.974Z,1.35
2022-09-18T20:25:50.757Z,1.65
2022-09-18T20:28:44.781Z,1.33
2022-09-18T20:31:22.284Z,1.30
2022-09-18T20:34:02.177Z,1.70
2022-09-18T20:36:42.538Z,1.35
2022-09-18T20:39:17.939Z,1.17
2022-09-18T20:41:55.181Z,1.27
2022-09-18T20:44:30.658Z,1.20
2022-09-18T20:47:06.988Z,1.38
2022-09-18T20:49:42.962Z,1.30
2022-09-18T20:52:18.272Z,1.50
2022-09-18T20:54:53.612Z,1.50
2022-09-18T20:57:31.205Z,1.98
2022-09-18T21:00:07.031Z,2.15
2022-09-18T21:02:42.742Z,1.73
2022-09-18T21:05:18.837Z,1.80
2022-09-18T21:07:59.211Z,1.52
2022-09-18T21:10:37.562Z,1.60
2022-09-18T21:13:16.022Z,1.67
2022-09-18T21:15:54.727Z,1.70
2022-09-18T21:18:31.009Z,1.75
2022-09-18T21:21:09.903Z,1.38
2022-09-18T21:23:58.108Z,1.70
2022-09-18T21:26:35.682Z,1.50
2022-09-18T21:29:16.895Z,1.70
2022-09-18T21:31:53.162Z,1.60
2022-09-18T21:34:31.803Z,1.55
2022-09-18T21:37:09.870Z,1.65
2022-09-18T21:39:46.482Z,1.50
2022-09-18T21:42:22.852Z,1.60
2022-09-18T21:45:04.884Z,1.80
2022-09-18T21:47:40.623Z,1.50
2022-09-18T21:50:15.855Z,1.60
2022-09-18T21:52:50.986Z,1.60
2022-09-18T21:55:26.468Z,1.80
2022-09-18T21:58:01.936Z,1.50
2022-09-18T22:00:39.812Z,1.45
2022-09-18T22:03:17.910Z,1.30
2022-09-18T22:05:54.705Z,1.38
2022-09-18T22:08:29.986Z,1.38
2022-09-18T22:11:08.727Z,1.60
2022-09-18T22:13:44.094Z,1.42
2022-09-18T22:16:21.643Z,1.50
2022-09-18T22:18:57.333Z,1.55
2022-09-18T22:21:34.446Z,1.38
2022-09-18T22:24:11.433Z,1.60
2022-09-18T22:26:48.167Z,1.83
2022-09-18T22:29:26.249Z,1.30
2022-09-18T22:32:03.783Z,1.50
2022-09-18T22:34:39.947Z,1.33
2022-09-18T22:37:15.728Z,1.60
2022-09-18T22:39:51.100Z,1.42
2022-09-18T22:42:26.395Z,1.38
2022-09-18T22:45:01.927Z,1.80
2022-09-18T22:47:39.083Z,1.70
2022-09-18T22:50:14.654Z,1.77
2022-09-18T22:52:49.805Z,1.80
2022-09-18T22:55:25.239Z,1.85
2022-09-18T22:58:01.719Z,1.70
2022-09-18T23:00:37.498Z,1.98
2022-09-18T23:03:14.686Z,1.67
2022-09-18T23:05:49.951Z,1.92
2022-09-18T23:08:25.973Z,2.00
2022-09-18T23:11:04.294Z,1.80
2022-09-18T23:13:43.174Z,1.50
2022-09-18T23:16:18.738Z,1.70
2022-09-18T23:18:57.355Z,2.22
2022-09-18T23:21:33.414Z,1.90
2022-09-18T23:24:12.127Z,1.60
2022-09-18T23:26:47.272Z,1.90
2022-09-18T23:29:22.645Z,1.80
2022-09-18T23:31:58.990Z,1.77
2022-09-18T23:34:37.417Z,1.60
2022-09-18T23:37:11.896Z,1.60
2022-09-18T23:39:46.949Z,1.77
2022-09-18T23:42:21.370Z,1.63
2022-09-18T23:44:57.884Z,1.50
2022-09-18T23:47:35.911Z,1.60
2022-09-18T23:50:12.642Z,1.75
2022-09-18T23:52:52.271Z,1.60
2022-09-18T23:55:29.488Z,1.80
2022-09-18T23:58:06.161Z,1.60
